Time;durP1;ratioP1;P1;durP2;ratioP2;P2;SDS_P1;SDS_P2;PMS_P1;PMS_P2;Temp;Humidity;BMP_temperature;BMP_pressure;BME280_temperature;BME280_humidity;BME280_pressure;Samples;Min_cycle;Max_cycle;Signal;HPM_P1;HPM_P2
2022/09/25 00:01:25;;;;;;;21.25;15.20;;;11.90;99.90;;;;;;5064061;28;20029;-54
2022/09/25 00:03:51;;;;;;;23.73;17.13;;;11.90;99.90;;;;;;5054905;28;20037;-53
2022/09/25 00:06:19;;;;;;;23.55;16.70;;;11.90;99.90;;;;;;5054910;28;20405;-52
2022/09/25 00:08:46;;;;;;;18.33;16.40;;;11.90;99.90;;;;;;5054751;28;20052;-51
2022/09/25 00:11:21;;;;;;;24.48;17.70;;;11.90;99.90;;;;;;5054974;28;20021;-53
2022/09/25 00:13:47;;;;;;;21.60;18.95;;;11.90;99.90;;;;;;5054763;28;20036;-53
2022/09/25 00:16:16;;;;;;;26.67;20.65;;;11.90;99.90;;;;;;5054876;28;20056;-52
2022/09/25 00:21:29;;;;;;;24.10;18.15;;;11.90;99.90;;;;;;5054617;28;20032;-51
2022/09/25 00:23:59;;;;;;;29.33;18.95;;;11.90;99.90;;;;;;5054479;28;20498;-51
2022/09/25 00:26:27;;;;;;;23.65;17.58;;;11.90;99.90;;;;;;5053498;28;20048;-53
2022/09/25 00:28:54;;;;;;;23.10;18.33;;;11.90;99.90;;;;;;5054266;28;20575;-52
2022/09/25 00:31:23;;;;;;;21.67;17.40;;;11.90;99.90;;;;;;5070997;28;20564;-51
2022/09/25 00:33:55;;;;;;;20.77;16.35;;;11.90;99.90;;;;;;5074229;28;20024;-50
2022/09/25 00:36:20;;;;;;;24.80;18.63;;;11.80;99.90;;;;;;5074345;28;20052;-49
2022/09/25 00:38:47;;;;;;;25.27;21.10;;;11.90;99.90;;;;;;5074227;28;20012;-51
2022/09/25 00:41:15;;;;;;;22.45;18.67;;;11.90;99.90;;;;;;5074369;28;20032;-50
2022/09/25 00:43:43;;;;;;;25.25;20.52;;;11.80;99.90;;;;;;5074103;28;20162;-51
2022/09/25 00:46:31;;;;;;;26.70;20.73;;;11.80;99.90;;;;;;5074146;28;20111;-52
2022/09/25 00:49:22;;;;;;;24.75;21.10;;;11.80;99.90;;;;;;5069262;28;20187;-50
2022/09/25 00:52:01;;;;;;;33.70;25.25;;;11.70;99.90;;;;;;5073974;28;20067;-51
2022/09/25 00:54:35;;;;;;;30.88;24.35;;;11.70;99.90;;;;;;5074140;28;20055;-51
2022/09/25 00:57:05;;;;;;;32.58;22.25;;;11.70;99.90;;;;;;5063134;28;20017;-51
2022/09/25 00:59:46;;;;;;;34.13;25.95;;;11.70;99.90;;;;;;5053967;28;20472;-49
2022/09/25 01:02:19;;;;;;;33.20;25.65;;;11.70;99.90;;;;;;5053935;28;20029;-51
2022/09/25 01:04:47;;;;;;;31.83;23.55;;;11.80;99.90;;;;;;5052688;28;20044;-52
2022/09/25 01:07:13;;;;;;;31.60;24.55;;;11.80;99.90;;;;;;5053662;28;20045;-51
2022/09/25 01:09:40;;;;;;;33.50;26.48;;;11.70;99.90;;;;;;5052210;28;20395;-52
2022/09/25 01:12:06;;;;;;;40.15;29.17;;;11.70;99.90;;;;;;5052515;28;20060;-54
2022/09/25 01:14:33;;;;;;;40.13;27.70;;;11.70;99.90;;;;;;5068825;28;20040;-53
2022/09/25 01:17:21;;;;;;;32.60;26.77;;;11.70;99.90;;;;;;5053475;28;20476;-55
2022/09/25 01:20:09;;;;;;;35.90;26.65;;;11.70;99.90;;;;;;5053494;28;20025;-54
2022/09/25 01:22:53;;;;;;;34.85;28.02;;;11.70;99.90;;;;;;5053631;28;20029;-53
2022/09/25 01:25:54;;;;;;;35.53;28.42;;;11.70;99.90;;;;;;5053526;28;20028;-52
2022/09/25 01:28:41;;;;;;;37.70;30.63;;;11.70;99.90;;;;;;5053351;28;20021;-51
2022/09/25 01:31:16;;;;;;;41.45;29.90;;;11.60;99.90;;;;;;5053435;28;20462;-53
2022/09/25 01:33:46;;;;;;;35.35;28.85;;;11.70;99.90;;;;;;5053119;28;20459;-54
2022/09/25 01:36:36;;;;;;;42.10;29.38;;;11.70;99.90;;;;;;5063929;28;20348;-55
2022/09/25 01:39:20;;;;;;;45.67;32.75;;;11.60;99.90;;;;;;5073175;28;20044;-51
2022/09/25 01:42:05;;;;;;;43.40;31.70;;;11.60;99.90;;;;;;5073127;28;20025;-56
2022/09/25 01:44:36;;;;;;;41.60;32.25;;;11.70;99.90;;;;;;5055689;28;20052;-55
2022/09/25 01:47:10;;;;;;;42.25;31.77;;;11.60;99.90;;;;;;5067512;28;20031;-52
2022/09/25 01:49:42;;;;;;;41.05;31.60;;;11.60;99.90;;;;;;5073108;28;20028;-52
2022/09/25 01:52:14;;;;;;;45.13;33.53;;;11.60;99.90;;;;;;5073044;28;20399;-52
2022/09/25 01:54:46;;;;;;;44.97;35.03;;;11.60;99.90;;;;;;5072772;28;20021;-51
2022/09/25 01:57:20;;;;;;;46.75;36.60;;;11.60;99.90;;;;;;5072908;28;20020;-51
2022/09/25 01:59:55;;;;;;;45.38;35.58;;;11.60;99.90;;;;;;5072729;28;20016;-50
2022/09/25 02:02:25;;;;;;;49.45;35.03;;;11.60;99.90;;;;;;5070052;28;20059;-52
2022/09/25 02:05:01;;;;;;;46.03;37.03;;;11.60;99.90;;;;;;5051301;28;20399;-51
2022/09/25 02:07:35;;;;;;;48.85;36.92;;;11.60;99.90;;;;;;5051942;28;20124;-50
2022/09/25 02:10:15;;;;;;;44.90;37.20;;;11.60;99.90;;;;;;5071237;28;20028;-54
2022/09/25 02:12:46;;;;;;;52.25;38.75;;;11.60;99.90;;;;;;5071918;28;20113;-51
2022/09/25 02:15:32;;;;;;;51.72;40.42;;;11.50;99.90;;;;;;5071911;28;20035;-53
2022/09/25 02:21:00;;;;;;;50.63;38.67;;;11.50;99.90;;;;;;5071998;28;20043;-51
2022/09/25 02:23:48;;;;;;;50.60;40.90;;;11.50;99.90;;;;;;5062658;28;20468;-53
2022/09/25 02:26:23;;;;;;;49.28;37.53;;;11.50;99.90;;;;;;5052491;28;20033;-50
2022/09/25 02:28:52;;;;;;;53.30;38.88;;;11.50;99.90;;;;;;5052241;28;20025;-53
2022/09/25 02:31:20;;;;;;;47.63;36.97;;;11.50;99.90;;;;;;5052389;28;20388;-51
2022/09/25 02:33:46;;;;;;;57.42;37.83;;;11.50;99.90;;;;;;5050722;28;20028;-56
2022/09/25 02:36:18;;;;;;;49.97;38.75;;;11.50;99.90;;;;;;5052028;28;20032;-52
2022/09/25 02:38:44;;;;;;;49.42;37.70;;;11.50;99.90;;;;;;5051960;28;20017;-52
2022/09/25 02:41:47;;;;;;;50.92;40.60;;;11.50;99.90;;;;;;5052098;28;20029;-51
2022/09/25 02:44:28;;;;;;;52.93;39.33;;;11.50;99.90;;;;;;5050902;28;20037;-51
2022/09/25 02:47:23;;;;;;;51.20;39.15;;;11.50;99.90;;;;;;5051921;28;20576;-53
2022/09/25 02:50:06;;;;;;;57.42;39.85;;;11.50;99.90;;;;;;5051667;28;20096;-53
2022/09/25 02:52:56;;;;;;;55.40;41.53;;;11.40;99.90;;;;;;5062565;28;20024;-52
2022/09/25 02:55:38;;;;;;;60.50;39.28;;;11.40;99.90;;;;;;5071883;28;20040;-50
2022/09/25 02:58:16;;;;;;;46.08;37.50;;;11.40;99.90;;;;;;5071950;28;20103;-55
2022/09/25 03:00:45;;;;;;;49.03;36.88;;;11.40;99.90;;;;;;5071658;28;20107;-52
2022/09/25 03:03:15;;;;;;;46.97;38.30;;;11.50;99.90;;;;;;5071741;28;20020;-52
2022/09/25 03:05:41;;;;;;;57.90;39.67;;;11.50;99.90;;;;;;5070303;28;20383;-50
2022/09/25 03:10:52;;;;;;;54.60;41.60;;;11.50;99.90;;;;;;5051594;28;20543;-50
2022/09/25 03:13:25;;;;;;;52.78;40.95;;;11.50;99.90;;;;;;5051553;28;20033;-52
2022/09/25 03:15:58;;;;;;;56.00;42.17;;;11.50;99.90;;;;;;5051422;28;20025;-51
2022/09/25 03:18:24;;;;;;;58.08;43.30;;;11.50;99.90;;;;;;5051759;28;20119;-51
2022/09/25 03:20:51;;;;;;;71.13;44.88;;;11.50;99.90;;;;;;5051373;28;20063;-51
2022/09/25 03:23:17;;;;;;;57.10;43.47;;;11.50;99.90;;;;;;5067973;28;20020;-50
2022/09/25 03:25:43;;;;;;;55.58;43.00;;;11.50;99.90;;;;;;5071248;28;20020;-51
2022/09/25 03:28:10;;;;;;;53.17;41.13;;;11.50;99.90;;;;;;5069793;28;20383;-50
2022/09/25 03:30:39;;;;;;;57.25;42.60;;;11.50;99.90;;;;;;5071486;28;20052;-52
2022/09/25 03:33:09;;;;;;;58.10;43.15;;;11.40;99.90;;;;;;5071596;28;20047;-52
2022/09/25 03:35:36;;;;;;;49.00;37.75;;;11.40;99.90;;;;;;5071436;28;20119;-52
2022/09/25 03:38:03;;;;;;;45.92;35.17;;;11.40;99.90;;;;;;5070912;28;20089;-51
2022/09/25 03:40:29;;;;;;;44.50;36.10;;;11.50;99.90;;;;;;5065159;28;20025;-50
2022/09/25 03:42:54;;;;;;;38.38;31.67;;;11.60;99.90;;;;;;5051154;28;20025;-51
2022/09/25 03:45:20;;;;;;;40.50;33.05;;;11.60;99.90;;;;;;5051337;28;20040;-51
2022/09/25 03:47:46;;;;;;;43.80;34.53;;;11.60;99.90;;;;;;5051043;28;20044;-52
2022/09/25 03:50:12;;;;;;;43.53;35.88;;;11.50;99.90;;;;;;5051185;28;20032;-51
2022/09/25 03:53:21;;;;;;;45.20;35.88;;;11.40;99.90;;;;;;5051190;28;20037;-51
2022/09/25 03:55:47;;;;;;;45.30;37.28;;;11.40;99.90;;;;;;5051029;28;20381;-52
2022/09/25 03:58:14;;;;;;;47.35;38.00;;;11.30;99.90;;;;;;5051234;28;20052;-52
2022/09/25 04:00:40;;;;;;;44.35;36.70;;;11.30;99.90;;;;;;5051032;28;20039;-51
2022/09/25 04:03:06;;;;;;;46.58;38.30;;;11.20;99.90;;;;;;5051155;28;20025;-51
2022/09/25 04:05:31;;;;;;;53.35;38.30;;;11.20;99.90;;;;;;5051132;28;20458;-53
2022/09/25 04:07:59;;;;;;;50.90;40.63;;;11.20;99.90;;;;;;5050756;28;20136;-51
2022/09/25 04:10:25;;;;;;;56.35;40.60;;;11.10;99.90;;;;;;5057899;28;20131;-50
2022/09/25 04:12:53;;;;;;;51.00;38.00;;;11.10;99.90;;;;;;5070918;28;20558;-52
2022/09/25 04:15:22;;;;;;;50.00;39.60;;;11.10;99.90;;;;;;5069782;28;20686;-52
2022/09/25 04:17:48;;;;;;;54.53;39.03;;;11.00;99.90;;;;;;5070913;28;20025;-51
2022/09/25 04:20:14;;;;;;;55.95;40.83;;;11.00;99.90;;;;;;5071169;28;20029;-50
2022/09/25 04:22:39;;;;;;;48.40;37.95;;;10.90;99.90;;;;;;5070805;28;20353;-51
2022/09/25 04:25:06;;;;;;;55.00;40.95;;;10.90;99.90;;;;;;5062881;28;20653;-51
2022/09/25 04:27:32;;;;;;;62.63;41.15;;;10.90;99.90;;;;;;5050914;28;20044;-51
2022/09/25 04:29:57;;;;;;;54.38;41.65;;;10.90;99.90;;;;;;5050909;28;20029;-49
2022/09/25 04:35:08;;;;;;;52.95;38.97;;;10.90;99.90;;;;;;5050824;28;20028;-51
2022/09/25 04:37:34;;;;;;;56.13;40.88;;;10.90;99.90;;;;;;5050923;28;20021;-52
2022/09/25 04:40:00;;;;;;;55.55;39.35;;;11.00;99.90;;;;;;5060416;28;20121;-51
2022/09/25 04:42:26;;;;;;;61.90;43.63;;;11.00;99.90;;;;;;5074487;28;20051;-51
2022/09/25 04:44:53;;;;;;;60.15;41.83;;;11.00;99.90;;;;;;5072822;28;20396;-51
2022/09/25 04:47:23;;;;;;;65.22;42.85;;;11.00;99.90;;;;;;5074132;28;20028;-51
2022/09/25 04:49:49;;;;;;;56.65;41.30;;;11.10;99.90;;;;;;5073987;28;20109;-50
2022/09/25 04:52:16;;;;;;;54.08;40.13;;;11.10;99.90;;;;;;5074312;28;20111;-50
2022/09/25 04:54:42;;;;;;;57.40;42.30;;;11.10;99.90;;;;;;5072591;28;20020;-50
2022/09/25 04:57:20;;;;;;;59.22;41.58;;;11.10;99.90;;;;;;5073926;28;20100;-50
2022/09/25 04:59:47;;;;;;;58.40;43.63;;;11.20;99.90;;;;;;5073813;28;20021;-51
2022/09/25 05:02:13;;;;;;;69.70;44.67;;;11.20;99.90;;;;;;5071639;28;20020;-50
2022/09/25 05:04:39;;;;;;;57.75;43.53;;;11.30;99.90;;;;;;5052306;28;20021;-53
2022/09/25 05:07:05;;;;;;;62.53;45.03;;;11.30;99.90;;;;;;5053757;28;20052;-50
2022/09/25 05:09:31;;;;;;;57.95;44.03;;;11.30;99.90;;;;;;5053932;28;20029;-50
2022/09/25 05:11:57;;;;;;;60.08;44.72;;;11.40;99.90;;;;;;5053951;28;20633;-52
2022/09/25 05:14:29;;;;;;;56.90;44.70;;;11.50;99.90;;;;;;5052303;28;20033;-53
2022/09/25 05:16:55;;;;;;;60.15;42.15;;;11.50;99.90;;;;;;5052143;28;20021;-51
2022/09/25 05:19:21;;;;;;;63.35;43.55;;;11.40;99.90;;;;;;5053785;28;20021;-50
2022/09/25 05:21:47;;;;;;;53.85;38.40;;;11.50;99.90;;;;;;5053487;28;20017;-52
2022/09/25 05:24:12;;;;;;;52.70;39.28;;;11.60;99.90;;;;;;5052296;28;20070;-52
2022/09/25 05:26:39;;;;;;;59.15;41.30;;;11.70;99.90;;;;;;5052040;28;20033;-50
2022/09/25 05:29:05;;;;;;;58.50;39.50;;;11.70;99.90;;;;;;5053452;28;20027;-53
2022/09/25 05:31:31;;;;;;;55.78;38.55;;;11.70;99.90;;;;;;5053809;28;20115;-51
2022/09/25 05:33:57;;;;;;;59.42;42.35;;;11.70;99.90;;;;;;5073152;28;20071;-52
2022/09/25 05:36:23;;;;;;;59.70;43.05;;;11.70;99.90;;;;;;5071971;28;20352;-55
2022/09/25 05:38:48;;;;;;;74.70;45.95;;;11.70;99.90;;;;;;5071490;28;20027;-51
2022/09/25 05:41:14;;;;;;;81.38;46.72;;;11.70;99.90;;;;;;5058148;28;20040;-51
2022/09/25 05:43:42;;;;;;;88.93;51.17;;;11.80;99.90;;;;;;5071860;28;20028;-50
2022/09/25 05:46:09;;;;;;;90.25;55.58;;;11.80;99.90;;;;;;5067415;28;20200;-52
2022/09/25 05:48:35;;;;;;;117.20;61.35;;;11.90;99.90;;;;;;5051876;28;20365;-51
2022/09/25 05:51:01;;;;;;;133.85;64.07;;;11.90;99.90;;;;;;5052616;28;20029;-53
2022/09/25 05:53:27;;;;;;;120.70;65.10;;;11.90;99.90;;;;;;5052833;28;20041;-51
2022/09/25 05:55:58;;;;;;;170.15;70.53;;;11.90;99.90;;;;;;5052892;28;20035;-53
2022/09/25 05:58:26;;;;;;;141.82;67.25;;;11.90;99.90;;;;;;5059393;28;20596;-50
2022/09/25 06:00:53;;;;;;;102.07;64.82;;;12.00;99.90;;;;;;5072750;28;20026;-51
2022/09/25 06:03:20;;;;;;;98.45;62.35;;;12.00;99.90;;;;;;5072707;28;20478;-51
2022/09/25 06:05:46;;;;;;;109.82;61.45;;;12.00;99.90;;;;;;5072617;28;20021;-51
2022/09/25 06:08:12;;;;;;;96.43;59.95;;;12.10;99.90;;;;;;5072624;28;20731;-50
2022/09/25 06:10:39;;;;;;;80.78;55.22;;;12.20;99.90;;;;;;5072624;28;20090;-51
2022/09/25 06:13:05;;;;;;;79.88;54.33;;;12.20;99.90;;;;;;5072610;28;20025;-54
2022/09/25 06:15:36;;;;;;;84.45;54.80;;;12.20;99.90;;;;;;5072402;28;20082;-51
2022/09/25 06:18:06;;;;;;;86.95;59.45;;;12.20;99.90;;;;;;5072536;28;20027;-52
2022/09/25 06:20:32;;;;;;;70.88;53.83;;;12.30;99.90;;;;;;5072534;28;20043;-54
2022/09/25 06:22:59;;;;;;;76.75;55.17;;;12.30;99.90;;;;;;5072231;28;20032;-55
2022/09/25 06:25:27;;;;;;;76.45;55.40;;;12.30;99.90;;;;;;5058024;28;20048;-51
2022/09/25 06:27:55;;;;;;;78.50;55.85;;;12.30;99.90;;;;;;5054588;28;20020;-56
2022/09/25 06:30:22;;;;;;;77.45;55.13;;;12.40;99.90;;;;;;5055373;28;20025;-54
2022/09/25 06:32:49;;;;;;;75.32;53.33;;;12.50;99.90;;;;;;5052055;28;20472;-51
2022/09/25 06:35:15;;;;;;;70.88;50.75;;;12.50;99.90;;;;;;5062021;28;20028;-51
2022/09/25 06:37:41;;;;;;;77.65;55.20;;;12.60;99.90;;;;;;5071735;28;20020;-51
2022/09/25 06:40:07;;;;;;;83.35;55.08;;;12.60;99.90;;;;;;5075688;28;20020;-50
2022/09/25 06:42:34;;;;;;;83.95;54.90;;;12.60;99.90;;;;;;5080097;28;20027;-51
2022/09/25 06:45:00;;;;;;;74.55;52.72;;;12.60;99.90;;;;;;5071703;28;20021;-50
2022/09/25 06:47:26;;;;;;;85.40;54.05;;;12.60;99.90;;;;;;5071703;28;20375;-53
2022/09/25 06:49:51;;;;;;;78.05;54.53;;;12.70;99.90;;;;;;5071779;28;20025;-51
2022/09/25 06:52:17;;;;;;;75.75;54.28;;;12.70;99.90;;;;;;5071993;28;20484;-49
2022/09/25 06:54:43;;;;;;;73.32;51.55;;;12.70;99.90;;;;;;5052582;28;20036;-50
2022/09/25 06:57:10;;;;;;;73.50;51.55;;;12.70;99.90;;;;;;5054025;28;20060;-52
2022/09/25 06:59:36;;;;;;;76.78;53.88;;;12.70;99.90;;;;;;5052048;28;20377;-52
2022/09/25 07:04:50;;;;;;;67.32;49.45;;;12.90;99.90;;;;;;5066441;28;20078;-52
2022/09/25 07:07:19;;;;;;;68.15;48.10;;;13.00;99.90;;;;;;5069826;28;20059;-50
2022/09/25 07:09:47;;;;;;;69.80;50.15;;;13.00;99.90;;;;;;5071388;28;20028;-50
2022/09/25 07:12:13;;;;;;;65.43;48.55;;;13.10;99.90;;;;;;5051433;28;20515;-51
2022/09/25 07:14:42;;;;;;;72.35;51.50;;;13.10;99.90;;;;;;5051195;28;20055;-53
2022/09/25 07:17:08;;;;;;;69.70;50.65;;;13.00;99.90;;;;;;5051497;28;20121;-51
2022/09/25 07:19:34;;;;;;;74.00;52.92;;;13.10;99.90;;;;;;5050861;28;20601;-52
2022/09/25 07:21:59;;;;;;;68.72;47.42;;;13.20;99.90;;;;;;5050318;28;20103;-51
2022/09/25 07:24:25;;;;;;;57.03;44.45;;;13.20;99.90;;;;;;5051203;28;20503;-50
2022/09/25 07:26:51;;;;;;;56.25;43.65;;;13.40;99.90;;;;;;5050853;28;20028;-51
2022/09/25 07:29:18;;;;;;;60.97;44.25;;;13.60;99.90;;;;;;5050811;28;20032;-50
2022/09/25 07:31:44;;;;;;;61.83;47.35;;;13.70;99.90;;;;;;5050992;28;20017;-52
2022/09/25 07:34:11;;;;;;;63.25;44.47;;;13.70;99.90;;;;;;5069426;28;20112;-54
2022/09/25 07:36:38;;;;;;;54.15;42.33;;;13.60;99.90;;;;;;5069171;28;20029;-55
2022/09/25 07:39:04;;;;;;;54.83;43.75;;;13.60;99.90;;;;;;5069440;28;20020;-55
2022/09/25 07:41:29;;;;;;;58.17;44.67;;;13.40;99.90;;;;;;5070331;28;20101;-55
2022/09/25 07:43:56;;;;;;;55.13;42.67;;;13.50;99.90;;;;;;5069997;28;20103;-56
2022/09/25 07:46:26;;;;;;;53.15;41.83;;;13.50;99.90;;;;;;5065207;28;20511;-54
2022/09/25 07:48:52;;;;;;;57.95;43.35;;;13.60;99.90;;;;;;5051376;28;20028;-58
2022/09/25 07:51:20;;;;;;;51.55;41.28;;;13.60;99.90;;;;;;5051373;28;20376;-57
2022/09/25 07:53:47;;;;;;;48.80;39.88;;;13.70;99.90;;;;;;5051134;28;20025;-55
2022/09/25 07:56:12;;;;;;;48.03;40.40;;;13.60;99.90;;;;;;5051181;28;20017;-55
2022/09/25 07:58:39;;;;;;;51.17;39.42;;;13.70;99.90;;;;;;5054662;28;20222;-55
2022/09/25 08:01:07;;;;;;;53.40;38.95;;;14.00;99.90;;;;;;5071077;28;20016;-53
2022/09/25 08:03:33;;;;;;;47.83;36.53;;;14.20;99.90;;;;;;5071216;28;20020;-56
2022/09/25 08:06:05;;;;;;;56.50;38.35;;;14.30;99.90;;;;;;5070988;28;20046;-56
2022/09/25 08:08:33;;;;;;;45.97;35.83;;;14.50;99.90;;;;;;5070851;28;20049;-54
2022/09/25 08:11:05;;;;;;;51.22;34.75;;;14.60;99.90;;;;;;5071008;28;20093;-57
2022/09/25 08:13:31;;;;;;;50.22;35.20;;;14.70;99.90;;;;;;5070270;28;20074;-57
2022/09/25 08:15:57;;;;;;;45.10;36.33;;;14.80;99.90;;;;;;5074735;28;20040;-54
2022/09/25 08:18:22;;;;;;;49.08;36.85;;;14.80;99.90;;;;;;5074819;28;20050;-54
2022/09/25 08:20:48;;;;;;;51.17;36.70;;;14.90;99.90;;;;;;5058935;28;20020;-57
2022/09/25 08:23:14;;;;;;;52.83;35.85;;;15.20;99.90;;;;;;5054615;28;20028;-53
2022/09/25 08:25:40;;;;;;;57.97;37.97;;;15.10;99.90;;;;;;5054444;28;20482;-56
2022/09/25 08:28:05;;;;;;;44.38;34.95;;;15.10;99.90;;;;;;5054457;28;20064;-56
2022/09/25 08:30:31;;;;;;;44.20;37.03;;;14.90;99.90;;;;;;5054588;28;20434;-56
2022/09/25 08:32:57;;;;;;;50.33;37.38;;;14.80;99.90;;;;;;5054316;28;20029;-56
2022/09/25 08:35:23;;;;;;;48.97;38.08;;;15.00;99.90;;;;;;5055606;28;20029;-52
2022/09/25 08:37:49;;;;;;;49.05;36.75;;;15.20;99.90;;;;;;5053878;28;20033;-54
2022/09/25 08:40:21;;;;;;;50.22;42.20;;;15.20;99.90;;;;;;5054299;28;20057;-57
2022/09/25 08:42:50;;;;;;;46.28;39.05;;;15.30;99.90;;;;;;5053728;28;20029;-56
2022/09/25 08:51:18;;;;;;;43.33;34.92;;;15.50;99.90;;;;;;5055178;28;20171;-56
2022/09/25 08:53:45;;;;;;;51.65;37.85;;;15.40;99.90;;;;;;5053561;28;20112;-54
2022/09/25 08:56:18;;;;;;;44.80;35.17;;;15.60;99.90;;;;;;5053979;28;20091;-57
2022/09/25 08:59:22;;;;;;;39.75;32.58;;;15.50;99.90;;;;;;5053855;28;20334;-56
2022/09/25 09:01:52;;;;;;;;;;;15.40;99.90;;;;;;5054239;28;20021;-54
2022/09/25 09:04:31;;;;;;;38.83;32.22;;;15.40;99.90;;;;;;5053323;28;19900;-54
2022/09/25 09:07:22;;;;;;;35.92;32.10;;;15.40;99.90;;;;;;5056410;28;20052;-56
2022/09/25 09:09:56;;;;;;;39.42;32.90;;;15.40;99.90;;;;;;5071748;28;20037;-57
2022/09/25 09:12:32;;;;;;;40.95;31.52;;;15.20;99.90;;;;;;5059277;28;20029;-57
2022/09/25 09:15:23;;;;;;;39.45;30.58;;;15.10;99.90;;;;;;5052316;28;20025;-52
2022/09/25 09:17:49;;;;;;;37.38;29.35;;;15.10;99.90;;;;;;5052270;28;20518;-54
2022/09/25 09:20:18;;;;;;;43.35;33.00;;;15.20;99.90;;;;;;5068379;28;20116;-53
2022/09/25 09:22:52;;;;;;;42.05;32.58;;;15.20;99.90;;;;;;5072212;28;20088;-54
2022/09/25 09:25:34;;;;;;;41.38;32.17;;;15.10;99.90;;;;;;5051908;28;20040;-55
2022/09/25 09:28:33;;;;;;;43.22;32.13;;;15.10;99.90;;;;;;5050986;28;20033;-55
2022/09/25 09:31:04;;;;;;;54.97;36.75;;;15.30;99.90;;;;;;5052006;28;20033;-56
2022/09/25 09:33:44;;;;;;;40.17;30.67;;;15.50;99.90;;;;;;5052105;28;20037;-55
2022/09/25 09:36:52;;;;;;;41.38;29.02;;;15.70;99.90;;;;;;5052255;28;20028;-54
2022/09/25 09:39:43;;;;;;;36.30;29.10;;;15.90;99.90;;;;;;5051383;28;20041;-56
2022/09/25 09:42:35;;;;;;;32.60;27.80;;;16.20;99.90;;;;;;5052033;28;20032;-54
2022/09/25 09:45:24;;;;;;;38.17;29.92;;;16.40;99.90;;;;;;5051790;28;20487;-54
2022/09/25 09:48:18;;;;;;;38.70;28.23;;;16.30;99.90;;;;;;5051768;28;20052;-56
2022/09/25 09:51:10;;;;;;;41.38;30.05;;;16.50;99.90;;;;;;5051832;28;20396;-57
2022/09/25 09:53:42;;;;;;;33.55;29.55;;;16.30;99.90;;;;;;5067393;28;20387;-54
2022/09/25 09:56:31;;;;;;;41.33;30.02;;;16.20;99.90;;;;;;5092342;28;20315;-53
2022/09/25 09:58:58;;;;;;;37.78;29.92;;;16.30;99.90;;;;;;5091525;28;20074;-53
2022/09/25 10:01:28;;;;;;;37.15;31.70;;;16.20;99.90;;;;;;5075572;28;20031;-57
2022/09/25 10:04:18;;;;;;;36.95;30.33;;;16.20;99.90;;;;;;5071364;28;20112;-53
2022/09/25 10:07:02;;;;;;;41.33;31.77;;;16.30;99.90;;;;;;5069517;28;20527;-55
2022/09/25 10:09:28;;;;;;;37.50;30.90;;;16.30;99.90;;;;;;5079635;28;20090;-56
2022/09/25 10:12:09;;;;;;;35.85;30.10;;;16.30;99.90;;;;;;5091559;28;20032;-54
2022/09/25 10:14:43;;;;;;;37.53;30.08;;;16.20;99.90;;;;;;5091465;28;20098;-55
2022/09/25 10:17:10;;;;;;;36.85;30.13;;;16.10;99.90;;;;;;5091652;28;20031;-57
2022/09/25 10:19:59;;;;;;;39.83;30.65;;;16.10;99.90;;;;;;5080871;28;20089;-54
2022/09/25 10:22:37;;;;;;;40.00;29.90;;;15.90;99.90;;;;;;5052408;28;20024;-55
2022/09/25 10:25:04;;;;;;;35.70;29.17;;;16.20;99.90;;;;;;5063175;28;20033;-52
2022/09/25 10:27:35;;;;;;;37.33;30.17;;;16.20;99.90;;;;;;5071238;28;20364;-53
2022/09/25 10:30:08;;;;;;;42.55;30.67;;;16.10;99.90;;;;;;5070954;28;20020;-56
2022/09/25 10:32:41;;;;;;;;;;;16.30;99.90;;;;;;5071375;28;20170;-56
2022/09/25 10:35:18;;;;;;;41.47;29.02;;;16.30;99.90;;;;;;5069168;28;20379;-53
2022/09/25 10:37:49;;;;;;;37.22;30.00;;;16.40;99.90;;;;;;5074128;28;20027;-54
2022/09/25 10:40:25;;;;;;;34.58;26.33;;;16.60;99.90;;;;;;5068090;28;20357;-54
2022/09/25 10:43:06;;;;;;;34.28;26.75;;;17.10;99.90;;;;;;5057150;28;20047;-56
2022/09/25 10:45:34;;;;;;;33.22;26.55;;;17.30;99.90;;;;;;5067402;28;20086;-53
2022/09/25 10:51:03;;;;;;;34.15;28.33;;;17.60;99.90;;;;;;5059817;28;20032;-56
2022/09/25 10:53:29;;;;;;;35.35;28.33;;;17.60;99.90;;;;;;5064489;28;20016;-57
2022/09/25 10:56:11;;;;;;;35.17;26.45;;;17.50;99.90;;;;;;5066606;28;20028;-55
2022/09/25 10:58:53;;;;;;;37.00;27.35;;;17.60;99.90;;;;;;5049462;28;20057;-55
2022/09/25 11:01:21;;;;;;;31.45;26.45;;;17.50;99.90;;;;;;5063356;28;20032;-54
2022/09/25 11:03:53;;;;;;;36.33;26.60;;;17.50;99.90;;;;;;5073354;28;20024;-56
2022/09/25 11:06:26;;;;;;;43.83;37.83;;;17.50;99.90;;;;;;5070118;28;20111;-51
2022/09/25 11:09:19;;;;;;;37.28;29.88;;;17.40;99.90;;;;;;5067860;28;20266;-57
2022/09/25 11:11:48;;;;;;;30.63;27.15;;;17.60;99.90;;;;;;5066212;28;20387;-58
2022/09/25 11:14:31;;;;;;;38.22;28.73;;;17.50;99.90;;;;;;5067919;28;20037;-56
2022/09/25 11:16:58;;;;;;;35.22;25.80;;;17.20;99.90;;;;;;5068003;28;20036;-57
2022/09/25 11:19:33;;;;;;;34.08;27.65;;;17.10;99.90;;;;;;5069326;28;20020;-58
2022/09/25 11:22:09;;;;;;;36.50;27.05;;;17.00;99.90;;;;;;5065076;28;20387;-57
2022/09/25 11:24:50;;;;;;;33.05;27.98;;;17.10;99.90;;;;;;5063957;28;20086;-58
2022/09/25 11:27:34;;;;;;;38.20;26.80;;;17.00;99.90;;;;;;5069174;28;20016;-58
2022/09/25 11:30:03;;;;;;;38.83;26.42;;;17.20;99.90;;;;;;5068868;28;20020;-58
2022/09/25 11:32:28;;;;;;;38.22;26.52;;;17.20;99.90;;;;;;5069430;28;20020;-57
2022/09/25 11:35:12;;;;;;;32.90;26.27;;;17.30;99.90;;;;;;5068689;28;20032;-58
2022/09/25 11:38:06;;;;;;;28.35;24.13;;;17.50;99.90;;;;;;5055446;28;20017;-58
2022/09/25 11:41:15;;;;;;;32.22;26.83;;;17.80;99.90;;;;;;5068482;28;20024;-57
2022/09/25 11:43:43;;;;;;;34.88;25.95;;;18.00;99.90;;;;;;5068751;28;20055;-56
2022/09/25 11:46:25;;;;;;;28.55;25.55;;;18.00;99.90;;;;;;5068819;28;20023;-58
2022/09/25 11:49:27;;;;;;;32.65;24.70;;;18.60;99.90;;;;;;5070618;28;20948;-58
2022/09/25 11:52:15;;;;;;;31.17;23.13;;;19.80;99.90;;;;;;5053186;28;20453;-58
2022/09/25 11:55:23;;;;;;;25.50;22.35;;;20.10;99.90;;;;;;5069730;28;20024;-58
2022/09/25 11:58:00;;;;;;;25.05;21.75;;;20.50;99.90;;;;;;5065825;28;20518;-58
2022/09/25 12:00:59;;;;;;;24.17;20.73;;;20.00;99.90;;;;;;5070164;28;20017;-58
2022/09/25 12:03:45;;;;;;;26.63;22.15;;;19.80;99.90;;;;;;5072825;28;20552;-58
2022/09/25 12:06:29;;;;;;;28.08;23.38;;;19.90;99.90;;;;;;5072497;28;20388;-58
2022/09/25 12:09:07;;;;;;;33.75;23.05;;;19.30;99.90;;;;;;5072333;28;20040;-58
2022/09/25 12:11:44;;;;;;;28.58;22.85;;;19.50;99.90;;;;;;5072462;28;20382;-58
2022/09/25 12:14:30;;;;;;;26.60;21.10;;;19.80;99.90;;;;;;5074408;28;20028;-57
2022/09/25 12:16:57;;;;;;;24.00;19.33;;;20.10;99.90;;;;;;5073257;28;20361;-58
2022/09/25 12:19:41;;;;;;;21.73;19.25;;;20.70;99.80;;;;;;5072224;28;20021;-58
2022/09/25 12:22:09;;;;;;;21.83;18.95;;;21.50;99.90;;;;;;5074433;28;20110;-58
2022/09/25 12:24:53;;;;;;;20.63;17.75;;;21.90;97.50;;;;;;5069935;28;20120;-58
2022/09/25 12:27:39;;;;;;;21.40;17.63;;;22.50;96.30;;;;;;5093639;28;20032;-58
2022/09/25 12:30:18;;;;;;;23.77;19.15;;;23.90;95.10;;;;;;5051907;28;20127;-59
2022/09/25 12:33:11;;;;;;;20.33;17.17;;;24.70;91.80;;;;;;5053141;28;20025;-59
2022/09/25 12:35:43;;;;;;;20.23;16.47;;;23.70;91.70;;;;;;5053235;28;20029;-59
2022/09/25 12:38:29;;;;;;;26.58;18.15;;;23.20;92.40;;;;;;5071541;28;20016;-58
2022/09/25 12:41:10;;;;;;;20.05;18.02;;;22.20;92.40;;;;;;5074212;28;20503;-58
2022/09/25 12:43:41;;;;;;;33.20;19.25;;;21.70;94.60;;;;;;5084330;28;20028;-58
2022/09/25 12:46:23;;;;;;;22.55;19.80;;;21.70;94.40;;;;;;5073134;28;20091;-58
2022/09/25 12:49:15;;;;;;;23.13;19.40;;;21.20;95.20;;;;;;5090002;28;20016;-58
2022/09/25 12:51:53;;;;;;;28.08;20.80;;;20.70;96.50;;;;;;5092459;28;20028;-58
2022/09/25 12:54:46;;;;;;;28.27;21.38;;;20.50;96.70;;;;;;5093213;28;20372;-59
2022/09/25 12:57:36;;;;;;;40.50;21.97;;;20.20;97.50;;;;;;5093056;28;20066;-57
2022/09/25 13:00:19;;;;;;;27.35;22.25;;;20.00;97.70;;;;;;5080340;28;20021;-57
2022/09/25 13:02:45;;;;;;;35.75;23.77;;;19.50;98.60;;;;;;5072772;28;20017;-57
2022/09/25 13:05:53;;;;;;;24.77;21.83;;;19.20;99.00;;;;;;5072736;28;20070;-58
2022/09/25 13:08:26;;;;;;;28.63;22.98;;;19.00;99.90;;;;;;5082304;28;20047;-57
2022/09/25 13:10:57;;;;;;;39.58;24.20;;;19.00;99.90;;;;;;5073697;28;20038;-57
2022/09/25 13:13:25;;;;;;;30.95;23.05;;;18.70;99.90;;;;;;5082637;28;20039;-58
2022/09/25 13:15:55;;;;;;;27.75;23.08;;;18.60;99.90;;;;;;5072328;28;20119;-58
2022/09/25 13:18:23;;;;;;;29.73;23.60;;;18.70;99.90;;;;;;5086242;28;20383;-57
2022/09/25 13:20:54;;;;;;;29.83;22.10;;;18.60;99.90;;;;;;5092431;28;20023;-57